Time;durP1;ratioP1;P1;durP2;ratioP2;P2;SDS_P1;SDS_P2;PMS_P1;PMS_P2;Temp;Humidity;BMP_temperature;BMP_pressure;BME280_temperature;BME280_humidity;BME280_pressure;Samples;Min_cycle;Max_cycle;Signal;HPM_P1;HPM_P2
2023/08/22 00:01:13;;;;;;;;;;;;;;;;;;5022820;28;19916;-83
2023/08/22 00:04:00;;;;;;;;;;;;;;;;;;5023691;28;19925;-81
2023/08/22 00:06:46;;;;;;;;;;;;;;;;;;5010455;28;19936;-82
2023/08/22 00:09:33;;;;;;;;;;;;;;;;;;5022955;28;19933;-82
2023/08/22 00:12:19;;;;;;;;;;;;;;;;;;5037644;28;19918;-82
2023/08/22 00:15:10;;;;;;;;;;;;;;;;;;5031824;28;19921;-82
2023/08/22 00:17:56;;;;;;;;;;;;;;;;;;5023996;28;21227;-80
2023/08/22 00:20:43;;;;;;;;;;;;;;;;;;5041974;28;19921;-81
2023/08/22 00:23:29;;;;;;;;;;;;;;;;;;5033921;28;20384;-80
2023/08/22 00:26:16;;;;;;;;;;;;;;;;;;5039624;28;19917;-80
2023/08/22 00:29:02;;;;;;;;;;;;;;;;;;5037786;28;19914;-81
2023/08/22 00:31:48;;;;;;;;;;;;;;;;;;5039417;28;19917;-81
2023/08/22 00:34:35;;;;;;;;;;;;;;;;;;5033403;28;19917;-81
2023/08/22 00:37:21;;;;;;;;;;;;;;;;;;5038392;28;19917;-81
2023/08/22 00:40:08;;;;;;;;;;;;;;;;;;5041332;28;19905;-79
2023/08/22 00:42:54;;;;;;;;;;;;;;;;;;5017986;28;19917;-81
2023/08/22 00:45:41;;;;;;;;;;;;;;;;;;5024815;28;20075;-80
2023/08/22 00:48:27;;;;;;;;;;;;;;;;;;5025825;28;19933;-80
2023/08/22 00:51:14;;;;;;;;;;;;;;;;;;5026905;28;20269;-81
2023/08/22 00:54:00;;;;;;;;;;;;;;;;;;5016856;28;20377;-81
2023/08/22 00:56:47;;;;;;;;;;;;;;;;;;5022584;28;19917;-79
2023/08/22 00:59:33;;;;;;;;;;;;;;;;;;5023960;28;19928;-80
2023/08/22 01:02:21;;;;;;;;;;;;;;;;;;5011960;28;20324;-80
2023/08/22 01:05:07;;;;;;;;;;;;;;;;;;5018814;28;19925;-80
2023/08/22 01:07:54;;;;;;;;;;;;;;;;;;5024669;28;20359;-80
2023/08/22 01:10:41;;;;;;;;;;;;;;;;;;5025015;28;19936;-80
2023/08/22 01:13:27;;;;;;;;;;;;;;;;;;5024459;28;19964;-81
2023/08/22 01:16:14;;;;;;;;;;;;;;;;;;5027082;28;19921;-81
2023/08/22 01:19:02;;;;;;;;;;;;;;;;;;5008015;28;20013;-80
2023/08/22 01:21:48;;;;;;;;;;;;;;;;;;5019875;28;19923;-80
2023/08/22 01:24:35;;;;;;;;;;;;;;;;;;5027115;28;19913;-81
2023/08/22 01:27:21;;;;;;;;;;;;;;;;;;5015755;28;19936;-81
2023/08/22 01:30:08;;;;;;;;;;;;;;;;;;5012206;28;19944;-81
2023/08/22 01:32:54;;;;;;;;;;;;;;;;;;5015321;28;19932;-79
2023/08/22 01:35:41;;;;;;;;;;;;;;;;;;5024980;28;19923;-78
2023/08/22 01:38:27;;;;;;;;;;;;;;;;;;5031039;28;19928;-78
2023/08/22 01:41:14;;;;;;;;;;;;;;;;;;5020507;28;19921;-79
2023/08/22 01:44:00;;;;;;;;;;;;;;;;;;5020565;28;20398;-79
2023/08/22 01:46:47;;;;;;;;;;;;;;;;;;5024531;28;19917;-78
2023/08/22 01:49:37;;;;;;;;;;;;;;;;;;5020544;28;20528;-78
2023/08/22 01:52:23;;;;;;;;;;;;;;;;;;5014281;28;19928;-78
2023/08/22 01:55:13;;;;;;;;;;;;;;;;;;5010400;28;20398;-77
2023/08/22 01:57:59;;;;;;;;;;;;;;;;;;5011964;28;19920;-78
2023/08/22 02:00:46;;;;;;;;;;;;;;;;;;5027146;28;19917;-78
2023/08/22 02:03:32;;;;;;;;;;;;;;;;;;5009079;28;20313;-79
2023/08/22 02:06:19;;;;;;;;;;;;;;;;;;5021899;28;19917;-78
2023/08/22 02:09:05;;;;;;;;;;;;;;;;;;5008958;28;20349;-78
2023/08/22 02:11:52;;;;;;;;;;;;;;;;;;5019679;28;19936;-78
2023/08/22 02:14:38;;;;;;;;;;;;;;;;;;5015327;28;19921;-78
2023/08/22 02:17:25;;;;;;;;;;;;;;;;;;5018207;28;20662;-78
2023/08/22 02:20:12;;;;;;;;;;;;;;;;;;5017114;28;19917;-78
2023/08/22 02:22:58;;;;;;;;;;;;;;;;;;5011948;28;19921;-78
2023/08/22 02:25:45;;;;;;;;;;;;;;;;;;5020093;28;19928;-78
2023/08/22 02:28:31;;;;;;;;;;;;;;;;;;5026167;28;20681;-78
2023/08/22 02:31:17;;;;;;;;;;;;;;;;;;5017536;28;19932;-77
2023/08/22 02:34:04;;;;;;;;;;;;;;;;;;5009804;28;19928;-78
2023/08/22 02:36:50;;;;;;;;;;;;;;;;;;5021159;28;19928;-78
2023/08/22 02:39:37;;;;;;;;;;;;;;;;;;5016242;28;19918;-78
2023/08/22 02:42:23;;;;;;;;;;;;;;;;;;5015589;28;19927;-78
2023/08/22 02:45:10;;;;;;;;;;;;;;;;;;5010678;28;20319;-77
2023/08/22 02:47:56;;;;;;;;;;;;;;;;;;5012581;28;19929;-78
2023/08/22 02:50:43;;;;;;;;;;;;;;;;;;5007780;28;20609;-78
2023/08/22 02:53:29;;;;;;;;;;;;;;;;;;5010411;28;19928;-77
2023/08/22 02:56:16;;;;;;;;;;;;;;;;;;5018658;28;20335;-76
2023/08/22 02:59:03;;;;;;;;;;;;;;;;;;5025047;28;19917;-78
2023/08/22 03:01:49;;;;;;;;;;;;;;;;;;5018903;28;20377;-78
2023/08/22 03:04:39;;;;;;;;;;;;;;;;;;5023442;28;19924;-77
2023/08/22 03:07:25;;;;;;;;;;;;;;;;;;5010440;28;19921;-77
2023/08/22 03:10:12;;;;;;;;;;;;;;;;;;5020275;28;19936;-77
2023/08/22 03:12:58;;;;;;;;;;;;;;;;;;5026450;28;20301;-77
2023/08/22 03:15:45;;;;;;;;;;;;;;;;;;5029308;28;19932;-78
2023/08/22 03:18:31;;;;;;;;;;;;;;;;;;5037996;28;19901;-78
2023/08/22 03:21:18;;;;;;;;;;;;;;;;;;5026332;28;20365;-78
2023/08/22 03:24:04;;;;;;;;;;;;;;;;;;5009570;28;20296;-78
2023/08/22 03:26:51;;;;;;;;;;;;;;;;;;5008467;28;19921;-78
2023/08/22 03:29:37;;;;;;;;;;;;;;;;;;5022856;28;19917;-78
2023/08/22 03:32:24;;;;;;;;;;;;;;;;;;5004457;28;19922;-82
2023/08/22 03:35:10;;;;;;;;;;;;;;;;;;5020753;28;20373;-82
2023/08/22 03:37:57;;;;;;;;;;;;;;;;;;5022795;28;19929;-81
2023/08/22 03:40:44;;;;;;;;;;;;;;;;;;5014641;28;19937;-81
2023/08/22 03:43:30;;;;;;;;;;;;;;;;;;5021975;28;19957;-81
2023/08/22 03:46:17;;;;;;;;;;;;;;;;;;5020678;28;19921;-80
2023/08/22 03:49:03;;;;;;;;;;;;;;;;;;5015461;28;19936;-83
2023/08/22 03:51:50;;;;;;;;;;;;;;;;;;5030381;28;20005;-81
2023/08/22 03:54:36;;;;;;;;;;;;;;;;;;5010254;28;19921;-83
2023/08/22 03:57:23;;;;;;;;;;;;;;;;;;5021747;28;19920;-80
2023/08/22 04:00:09;;;;;;;;;;;;;;;;;;5008892;28;19920;-81
2023/08/22 04:02:55;;;;;;;;;;;;;;;;;;5022088;28;19936;-82
2023/08/22 04:05:42;;;;;;;;;;;;;;;;;;5019044;28;19924;-82
2023/08/22 04:08:28;;;;;;;;;;;;;;;;;;5002801;28;20316;-78
2023/08/22 04:11:15;;;;;;;;;;;;;;;;;;5036672;28;19940;-78
2023/08/22 04:14:01;;;;;;;;;;;;;;;;;;5024481;28;19917;-80
2023/08/22 04:16:48;;;;;;;;;;;;;;;;;;5019794;28;19928;-77
2023/08/22 04:19:34;;;;;;;;;;;;;;;;;;5022179;28;19921;-79
2023/08/22 04:22:21;;;;;;;;;;;;;;;;;;5026499;28;20001;-78
2023/08/22 04:25:07;;;;;;;;;;;;;;;;;;5030647;28;19927;-79
2023/08/22 04:27:54;;;;;;;;;;;;;;;;;;5025081;28;19929;-79
2023/08/22 04:30:42;;;;;;;;;;;;;;;;;;5022152;28;19961;-77
2023/08/22 04:33:29;;;;;;;;;;;;;;;;;;5022370;28;19927;-78
2023/08/22 04:36:15;;;;;;;;;;;;;;;;;;5024611;28;20360;-79
2023/08/22 04:39:02;;;;;;;;;;;;;;;;;;5026381;28;19932;-79
2023/08/22 04:41:50;;;;;;;;;;;;;;;;;;5022529;28;19932;-78
2023/08/22 04:44:36;;;;;;;;;;;;;;;;;;5024513;28;20292;-78
2023/08/22 04:47:23;;;;;;;;;;;;;;;;;;5019184;28;19927;-78
2023/08/22 04:50:09;;;;;;;;;;;;;;;;;;5017401;28;20388;-79
2023/08/22 04:52:56;;;;;;;;;;;;;;;;;;5021662;28;19922;-80
2023/08/22 04:55:42;;;;;;;;;;;;;;;;;;5027337;28;19947;-80
2023/08/22 04:58:29;;;;;;;;;;;;;;;;;;5013088;28;19925;-80
2023/08/22 05:01:15;;;;;;;;;;;;;;;;;;5022255;28;19931;-80
2023/08/22 05:04:02;;;;;;;;;;;;;;;;;;5019131;28;19936;-80
2023/08/22 05:06:48;;;;;;;;;;;;;;;;;;5012280;28;19928;-80
2023/08/22 05:09:35;;;;;;;;;;;;;;;;;;5028368;28;20434;-80
2023/08/22 05:12:21;;;;;;;;;;;;;;;;;;5020630;28;19921;-79
2023/08/22 05:15:08;;;;;;;;;;;;;;;;;;5016084;28;20386;-80
2023/08/22 05:17:54;;;;;;;;;;;;;;;;;;5021568;28;19924;-79
2023/08/22 05:20:41;;;;;;;;;;;;;;;;;;5019926;28;19924;-80
2023/08/22 05:23:27;;;;;;;;;;;;;;;;;;5020132;28;19925;-80
2023/08/22 05:26:14;;;;;;;;;;;;;;;;;;5005551;28;20373;-80
2023/08/22 05:29:00;;;;;;;;;;;;;;;;;;5024241;28;20277;-79
2023/08/22 05:31:47;;;;;;;;;;;;;;;;;;5015638;28;19936;-81
2023/08/22 05:34:33;;;;;;;;;;;;;;;;;;5021255;28;19921;-80
2023/08/22 05:37:19;;;;;;;;;;;;;;;;;;5014192;28;20034;-80
2023/08/22 05:40:08;;;;;;;;;;;;;;;;;;5015805;28;19923;-78
2023/08/22 05:42:54;;;;;;;;;;;;;;;;;;5023288;28;19929;-78
2023/08/22 05:45:41;;;;;;;;;;;;;;;;;;5022106;28;19921;-77
2023/08/22 05:48:27;;;;;;;;;;;;;;;;;;5017688;28;19937;-78
2023/08/22 05:51:14;;;;;;;;;;;;;;;;;;5016960;28;19936;-77
2023/08/22 05:54:00;;;;;;;;;;;;;;;;;;5018324;28;19921;-77
2023/08/22 05:56:47;;;;;;;;;;;;;;;;;;5018147;28;19921;-78
2023/08/22 05:59:33;;;;;;;;;;;;;;;;;;5025613;28;19925;-77
2023/08/22 06:02:19;;;;;;;;;;;;;;;;;;5017006;28;19917;-78
2023/08/22 06:05:06;;;;;;;;;;;;;;;;;;5017396;28;19928;-77
2023/08/22 06:07:53;;;;;;;;;;;;;;;;;;5018405;28;20829;-76
2023/08/22 06:10:39;;;;;;;;;;;;;;;;;;5012288;28;19925;-78
2023/08/22 06:13:26;;;;;;;;;;;;;;;;;;5019935;28;20316;-77
2023/08/22 06:16:12;;;;;;;;;;;;;;;;;;5028705;28;19921;-77
2023/08/22 06:18:59;;;;;;;;;;;;;;;;;;5012695;28;20403;-77
2023/08/22 06:21:45;;;;;;;;;;;;;;;;;;5023360;28;19921;-77
2023/08/22 06:24:32;;;;;;;;;;;;;;;;;;5007034;28;20042;-77
2023/08/22 06:27:18;;;;;;;;;;;;;;;;;;5018480;28;19992;-77
2023/08/22 06:30:05;;;;;;;;;;;;;;;;;;5018778;28;19929;-77
2023/08/22 06:32:51;;;;;;;;;;;;;;;;;;5018737;28;20373;-77
2023/08/22 06:35:38;;;;;;;;;;;;;;;;;;5020626;28;19921;-77
2023/08/22 06:38:24;;;;;;;;;;;;;;;;;;5024864;28;19931;-77
2023/08/22 06:41:11;;;;;;;;;;;;;;;;;;5006014;28;20340;-78
2023/08/22 06:43:57;;;;;;;;;;;;;;;;;;5018353;28;19921;-78
2023/08/22 06:46:44;;;;;;;;;;;;;;;;;;5021199;28;19925;-78
2023/08/22 06:49:31;;;;;;;;;;;;;;;;;;5021279;28;19936;-78
2023/08/22 06:52:18;;;;;;;;;;;;;;;;;;5020225;28;20436;-78
2023/08/22 06:55:05;;;;;;;;;;;;;;;;;;5021014;28;19920;-78
2023/08/22 06:57:51;;;;;;;;;;;;;;;;;;5017652;28;19921;-78
2023/08/22 07:00:38;;;;;;;;;;;;;;;;;;5016908;28;19922;-79
2023/08/22 07:03:24;;;;;;;;;;;;;;;;;;5020572;28;20296;-78
2023/08/22 07:06:11;;;;;;;;;;;;;;;;;;5018743;28;19925;-78
2023/08/22 07:08:57;;;;;;;;;;;;;;;;;;5019711;28;19928;-78
2023/08/22 07:11:44;;;;;;;;;;;;;;;;;;5018094;28;19925;-77
2023/08/22 07:14:30;;;;;;;;;;;;;;;;;;5020398;28;19923;-77
2023/08/22 07:17:17;;;;;;;;;;;;;;;;;;5019189;28;19933;-78
2023/08/22 07:20:03;;;;;;;;;;;;;;;;;;5021333;28;19944;-78
2023/08/22 07:22:50;;;;;;;;;;;;;;;;;;5022475;28;20398;-77
2023/08/22 07:25:36;;;;;;;;;;;;;;;;;;5018774;28;19917;-77
2023/08/22 07:28:23;;;;;;;;;;;;;;;;;;5024521;28;19966;-77
2023/08/22 07:31:09;;;;;;;;;;;;;;;;;;5023772;28;19936;-77
2023/08/22 07:33:56;;;;;;;;;;;;;;;;;;5022087;28;19921;-77
2023/08/22 07:36:42;;;;;;;;;;;;;;;;;;5025733;28;19972;-77
2023/08/22 07:39:29;;;;;;;;;;;;;;;;;;5026460;28;19926;-77
2023/08/22 07:42:16;;;;;;;;;;;;;;;;;;5021833;28;19921;-77
2023/08/22 07:45:03;;;;;;;;;;;;;;;;;;5022048;28;19921;-78
2023/08/22 07:47:51;;;;;;;;;;;;;;;;;;5019037;28;19929;-78
2023/08/22 07:50:38;;;;;;;;;;;;;;;;;;5019401;28;20394;-78
2023/08/22 07:53:24;;;;;;;;;;;;;;;;;;5027269;28;19921;-80
2023/08/22 07:56:10;;;;;;;;;;;;;;;;;;5024557;28;19921;-79
2023/08/22 07:58:57;;;;;;;;;;;;;;;;;;5026761;28;19921;-80
2023/08/22 08:01:43;;;;;;;;;;;;;;;;;;5024441;28;19921;-80
2023/08/22 08:04:30;;;;;;;;;;;;;;;;;;5027898;28;20457;-79
2023/08/22 08:07:16;;;;;;;;;;;;;;;;;;5030130;28;19939;-80
2023/08/22 08:10:04;;;;;;;;;;;;;;;;;;5041798;28;19921;-79
2023/08/22 08:12:50;;;;;;;;;;;;;;;;;;5038401;28;19943;-79
2023/08/22 08:15:36;;;;;;;;;;;;;;;;;;5029659;28;19926;-79
2023/08/22 08:18:23;;;;;;;;;;;;;;;;;;5022948;28;19928;-79
2023/08/22 08:21:09;;;;;;;;;;;;;;;;;;5026025;28;19921;-79
2023/08/22 08:23:56;;;;;;;;;;;;;;;;;;5020533;28;19925;-79
2023/08/22 08:26:42;;;;;;;;;;;;;;;;;;5025304;28;19943;-82
2023/08/22 08:29:29;;;;;;;;;;;;;;;;;;5026913;28;19925;-80
2023/08/22 08:32:15;;;;;;;;;;;;;;;;;;5024694;28;19968;-80
2023/08/22 08:35:04;;;;;;;;;;;;;;;;;;5024208;28;20262;-80
2023/08/22 08:37:52;;;;;;;;;;;;;;;;;;5027233;28;19925;-80
2023/08/22 08:40:39;;;;;;;;;;;;;;;;;;5023300;28;19921;-80
2023/08/22 08:43:25;;;;;;;;;;;;;;;;;;5015561;28;19913;-80
2023/08/22 08:46:11;;;;;;;;;;;;;;;;;;5018679;28;19921;-79
2023/08/22 08:48:58;;;;;;;;;;;;;;;;;;5022459;28;20530;-80
2023/08/22 08:51:44;;;;;;;;;;;;;;;;;;5022615;28;19927;-80
2023/08/22 08:54:31;;;;;;;;;;;;;;;;;;5024225;28;19960;-79
2023/08/22 08:57:17;;;;;;;;;;;;;;;;;;5006268;28;19917;-79
2023/08/22 09:00:04;;;;;;;;;;;;;;;;;;5019090;28;19925;-79
2023/08/22 09:02:51;;;;;;;;;;;;;;;;;;5022384;28;19927;-80
2023/08/22 09:05:37;;;;;;;;;;;;;;;;;;5022827;28;19928;-81
2023/08/22 09:08:24;;;;;;;;;;;;;;;;;;5021837;28;19929;-80
2023/08/22 09:11:10;;;;;;;;;;;;;;;;;;5019937;28;20399;-80
2023/08/22 09:13:57;;;;;;;;;;;;;;;;;;5022050;28;19921;-81
2023/08/22 09:16:43;;;;;;;;;;;;;;;;;;5025661;28;19921;-81
2023/08/22 09:19:30;;;;;;;;;;;;;;;;;;5023489;28;19921;-80
2023/08/22 09:22:16;;;;;;;;;;;;;;;;;;5017340;28;19933;-80
2023/08/22 09:25:04;;;;;;;;;;;;;;;;;;5022574;28;19921;-81
2023/08/22 09:27:50;;;;;;;;;;;;;;;;;;5018878;28;19918;-81
2023/08/22 09:30:37;;;;;;;;;;;;;;;;;;5022042;28;19936;-80
2023/08/22 09:33:23;;;;;;;;;;;;;;;;;;5022097;28;19921;-80
2023/08/22 09:36:10;;;;;;;;;;;;;;;;;;5019774;28;19921;-79
2023/08/22 09:38:56;;;;;;;;;;;;;;;;;;5021402;28;20419;-79
2023/08/22 09:41:43;;;;;;;;;;;;;;;;;;5022489;28;19950;-79
2023/08/22 09:44:29;;;;;;;;;;;;;;;;;;5008276;28;19925;-80
2023/08/22 09:47:16;;;;;;;;;;;;;;;;;;5005930;28;20016;-80
2023/08/22 09:50:02;;;;;;;;;;;;;;;;;;5019748;28;19929;-80
2023/08/22 09:52:49;;;;;;;;;;;;;;;;;;5022318;28;20020;-80
2023/08/22 09:55:35;;;;;;;;;;;;;;;;;;5019417;28;19918;-80
2023/08/22 09:58:22;;;;;;;;;;;;;;;;;;5021783;28;19948;-80
2023/08/22 10:01:09;;;;;;;;;;;;;;;;;;5019884;28;19921;-80
2023/08/22 10:03:56;;;;;;;;;;;;;;;;;;5020300;28;19933;-80
2023/08/22 10:06:42;;;;;;;;;;;;;;;;;;5019780;28;19928;-81
2023/08/22 10:09:29;;;;;;;;;;;;;;;;;;5006291;28;20309;-81
2023/08/22 10:12:15;;;;;;;;;;;;;;;;;;5020878;28;19929;-80
2023/08/22 10:15:02;;;;;;;;;;;;;;;;;;5014511;28;20356;-80
2023/08/22 10:17:48;;;;;;;;;;;;;;;;;;5019872;28;19921;-82
2023/08/22 10:20:35;;;;;;;;;;;;;;;;;;5017571;28;20300;-80
2023/08/22 10:23:21;;;;;;;;;;;;;;;;;;5020340;28;20265;-80
2023/08/22 10:26:08;;;;;;;;;;;;;;;;;;5017511;28;19926;-80
2023/08/22 10:28:54;;;;;;;;;;;;;;;;;;5019726;28;19924;-81
2023/08/22 10:31:41;;;;;;;;;;;;;;;;;;5021817;28;19929;-80
2023/08/22 10:34:27;;;;;;;;;;;;;;;;;;5018047;28;19921;-80
2023/08/22 10:37:14;;;;;;;;;;;;;;;;;;5019137;28;19937;-81
2023/08/22 10:40:00;;;;;;;;;;;;;;;;;;5017743;28;19925;-81
2023/08/22 10:42:47;;;;;;;;;;;;;;;;;;5005819;28;20301;-81
2023/08/22 10:45:33;;;;;;;;;;;;;;;;;;5011155;28;19921;-81
2023/08/22 10:48:20;;;;;;;;;;;;;;;;;;5006524;28;19928;-81
2023/08/22 10:51:06;;;;;;;;;;;;;;;;;;5004193;28;19932;-81
2023/08/22 10:53:55;;;;;;;;;;;;;;;;;;5015815;28;19924;-82
2023/08/22 10:56:41;;;;;;;;;;;;;;;;;;5021504;28;19924;-81
2023/08/22 10:59:28;;;;;;;;;;;;;;;;;;5019879;28;19921;-81
2023/08/22 11:02:14;;;;;;;;;;;;;;;;;;5021626;28;19928;-81
2023/08/22 11:05:01;;;;;;;;;;;;;;;;;;5017370;28;20297;-81
2023/08/22 11:07:48;;;;;;;;;;;;;;;;;;5019176;28;19962;-81
2023/08/22 11:10:34;;;;;;;;;;;;;;;;;;5017550;28;19921;-81
2023/08/22 11:13:21;;;;;;;;;;;;;;;;;;5012303;28;19921;-81
2023/08/22 11:16:08;;;;;;;;;;;;;;;;;;5015852;28;19925;-81
2023/08/22 11:18:55;;;;;;;;;;;;;;;;;;5024739;28;19944;-81
2023/08/22 11:21:41;;;;;;;;;;;;;;;;;;5022386;28;19940;-81
2023/08/22 11:24:28;;;;;;;;;;;;;;;;;;5019936;28;19928;-82
2023/08/22 11:27:14;;;;;;;;;;;;;;;;;;5014724;28;19936;-82
2023/08/22 11:30:01;;;;;;;;;;;;;;;;;;5011179;28;19925;-81
2023/08/22 11:32:48;;;;;;;;;;;;;;;;;;5013621;28;19935;-81
2023/08/22 11:35:34;;;;;;;;;;;;;;;;;;5015580;28;19921;-82
2023/08/22 11:38:21;;;;;;;;;;;;;;;;;;5012506;28;19929;-81
2023/08/22 11:41:07;;;;;;;;;;;;;;;;;;5023898;28;20520;-81
2023/08/22 11:43:55;;;;;;;;;;;;;;;;;;4998775;28;19917;-81
2023/08/22 11:46:42;;;;;;;;;;;;;;;;;;5015161;28;20385;-81
2023/08/22 11:49:29;;;;;;;;;;;;;;;;;;5017388;28;19936;-82
2023/08/22 11:52:15;;;;;;;;;;;;;;;;;;5021779;28;19929;-81
2023/08/22 11:55:04;;;;;;;;;;;;;;;;;;5019739;28;21633;-81
2023/08/22 11:57:51;;;;;;;;;;;;;;;;;;5018296;28;19993;-81
2023/08/22 12:00:37;;;;;;;;;;;;;;;;;;5020869;28;19925;-81
2023/08/22 12:03:24;;;;;;;;;;;;;;;;;;5015665;28;19924;-81
2023/08/22 12:06:10;;;;;;;;;;;;;;;;;;5020068;28;19925;-81
2023/08/22 12:08:57;;;;;;;;;;;;;;;;;;5020180;28;19932;-84
2023/08/22 12:11:43;;;;;;;;;;;;;;;;;;5016535;28;19929;-81
2023/08/22 12:14:30;;;;;;;;;;;;;;;;;;5006263;28;20389;-80
2023/08/22 12:17:16;;;;;;;;;;;;;;;;;;5015770;28;19928;-80
2023/08/22 12:20:03;;;;;;;;;;;;;;;;;;5017531;28;20309;-80
2023/08/22 12:22:49;;;;;;;;;;;;;;;;;;5021218;28;19927;-81
2023/08/22 12:25:36;;;;;;;;;;;;;;;;;;5021109;28;20352;-80
2023/08/22 12:28:24;;;;;;;;;;;;;;;;;;5017489;28;19929;-81
2023/08/22 12:31:10;;;;;;;;;;;;;;;;;;5022330;28;19925;-80
2023/08/22 12:33:56;;;;;;;;;;;;;;;;;;5012984;28;19925;-80
2023/08/22 12:36:43;;;;;;;;;;;;;;;;;;5028827;28;19936;-80
2023/08/22 12:39:29;;;;;;;;;;;;;;;;;;5020007;28;19921;-80
2023/08/22 12:42:16;;;;;;;;;;;;;;;;;;5020329;28;19917;-80
2023/08/22 12:45:03;;;;;;;;;;;;;;;;;;5019518;28;19924;-80
2023/08/22 12:47:49;;;;;;;;;;;;;;;;;;5016953;28;19945;-80
2023/08/22 12:50:36;;;;;;;;;;;;;;;;;;5026446;28;19931;-80
2023/08/22 12:53:22;;;;;;;;;;;;;;;;;;5020617;28;20400;-80
2023/08/22 12:56:09;;;;;;;;;;;;;;;;;;5023756;28;19925;-81
2023/08/22 12:58:55;;;;;;;;;;;;;;;;;;5017909;28;19925;-80
2023/08/22 13:01:42;;;;;;;;;;;;;;;;;;5020963;28;19930;-78
2023/08/22 13:04:28;;;;;;;;;;;;;;;;;;5018208;28;20308;-80
2023/08/22 13:07:15;;;;;;;;;;;;;;;;;;5021775;28;19921;-80
2023/08/22 13:10:02;;;;;;;;;;;;;;;;;;5030454;28;19917;-80
2023/08/22 13:12:49;;;;;;;;;;;;;;;;;;5019622;28;19925;-80
2023/08/22 13:15:35;;;;;;;;;;;;;;;;;;5020326;28;19921;-80
2023/08/22 13:18:22;;;;;;;;;;;;;;;;;;5025461;28;19917;-80
2023/08/22 13:21:08;;;;;;;;;;;;;;;;;;5019073;28;19921;-79
2023/08/22 13:23:55;;;;;;;;;;;;;;;;;;5013339;28;19923;-79
2023/08/22 13:26:41;;;;;;;;;;;;;;;;;;5024264;28;19921;-80
2023/08/22 13:29:28;;;;;;;;;;;;;;;;;;5026671;28;19925;-79
2023/08/22 13:32:14;;;;;;;;;;;;;;;;;;5008097;28;19939;-80
2023/08/22 13:35:01;;;;;;;;;;;;;;;;;;5022815;28;19921;-81
2023/08/22 13:37:47;;;;;;;;;;;;;;;;;;5016200;28;19921;-82
2023/08/22 13:40:34;;;;;;;;;;;;;;;;;;5004241;28;20012;-81
2023/08/22 13:43:20;;;;;;;;;;;;;;;;;;5000462;28;19917;-81
2023/08/22 13:46:07;;;;;;;;;;;;;;;;;;5015381;28;20703;-80
2023/08/22 13:48:53;;;;;;;;;;;;;;;;;;5023901;28;20480;-80
2023/08/22 13:51:40;;;;;;;;;;;;;;;;;;5003846;28;19922;-81
2023/08/22 13:54:26;;;;;;;;;;;;;;;;;;5026492;28;20043;-81
2023/08/22 13:57:13;;;;;;;;;;;;;;;;;;5021000;28;19921;-80
2023/08/22 14:00:00;;;;;;;;;;;;;;;;;;5019093;28;20537;-80
2023/08/22 14:02:46;;;;;;;;;;;;;;;;;;5021299;28;20427;-81
2023/08/22 14:05:33;;;;;;;;;;;;;;;;;;5020232;28;19927;-82
2023/08/22 14:08:19;;;;;;;;;;;;;;;;;;5018310;28;19917;-82
2023/08/22 14:11:06;;;;;;;;;;;;;;;;;;5003373;28;19936;-82
2023/08/22 14:13:52;;;;;;;;;;;;;;;;;;5012575;28;20403;-82
2023/08/22 14:16:39;;;;;;;;;;;;;;;;;;5013515;28;19969;-81
2023/08/22 14:19:25;;;;;;;;;;;;;;;;;;5001606;28;19927;-82
2023/08/22 14:22:12;;;;;;;;;;;;;;;;;;5029332;28;19913;-82
2023/08/22 14:24:58;;;;;;;;;;;;;;;;;;4998012;28;20412;-82
2023/08/22 14:27:46;;;;;;;;;;;;;;;;;;5028806;28;19939;-82
2023/08/22 14:30:33;;;;;;;;;;;;;;;;;;5017764;28;19921;-82
2023/08/22 14:33:19;;;;;;;;;;;;;;;;;;5014399;28;19931;-81
2023/08/22 14:36:06;;;;;;;;;;;;;;;;;;5020399;28;19921;-81
2023/08/22 14:38:52;;;;;;;;;;;;;;;;;;5020164;28;19925;-80
2023/08/22 14:41:40;;;;;;;;;;;;;;;;;;5021073;28;19921;-78
2023/08/22 14:44:27;;;;;;;;;;;;;;;;;;5020657;28;19921;-80
2023/08/22 14:47:13;;;;;;;;;;;;;;;;;;5020605;28;19935;-79
2023/08/22 14:50:00;;;;;;;;;;;;;;;;;;5015770;28;19929;-80
2023/08/22 14:52:46;;;;;;;;;;;;;;;;;;5020283;28;19925;-80
2023/08/22 14:55:33;;;;;;;;;;;;;;;;;;5022298;28;19921;-79
2023/08/22 14:58:19;;;;;;;;;;;;;;;;;;5020734;28;19928;-80
2023/08/22 15:01:06;;;;;;;;;;;;;;;;;;5021394;28;20524;-76
2023/08/22 15:03:52;;;;;;;;;;;;;;;;;;5017672;28;19924;-77
2023/08/22 15:06:39;;;;;;;;;;;;;;;;;;5025594;28;20304;-76
2023/08/22 15:09:25;;;;;;;;;;;;;;;;;;5021499;28;19921;-76
2023/08/22 15:12:12;;;;;;;;;;;;;;;;;;5019453;28;19944;-77
2023/08/22 15:14:58;;;;;;;;;;;;;;;;;;5018728;28;19925;-76
2023/08/22 15:17:44;;;;;;;;;;;;;;;;;;5014663;28;19928;-77
2023/08/22 15:20:31;;;;;;;;;;;;;;;;;;5015335;28;19921;-76
2023/08/22 15:23:18;;;;;;;;;;;;;;;;;;5017765;28;19919;-76
2023/08/22 15:26:04;;;;;;;;;;;;;;;;;;5021849;28;19918;-76
2023/08/22 15:28:51;;;;;;;;;;;;;;;;;;5012644;28;20334;-76
2023/08/22 15:31:37;;;;;;;;;;;;;;;;;;5020161;28;19940;-76
2023/08/22 15:34:24;;;;;;;;;;;;;;;;;;5020580;28;20398;-76
2023/08/22 15:37:10;;;;;;;;;;;;;;;;;;5015141;28;19918;-77
2023/08/22 15:39:57;;;;;;;;;;;;;;;;;;5014265;28;19921;-77
2023/08/22 15:42:43;;;;;;;;;;;;;;;;;;5020755;28;20365;-76
2023/08/22 15:45:30;;;;;;;;;;;;;;;;;;5018805;28;19925;-77
2023/08/22 15:48:16;;;;;;;;;;;;;;;;;;5019894;28;20316;-77
2023/08/22 15:51:03;;;;;;;;;;;;;;;;;;5015847;28;19928;-77
2023/08/22 15:53:49;;;;;;;;;;;;;;;;;;5025302;28;19921;-78
2023/08/22 15:56:36;;;;;;;;;;;;;;;;;;5023023;28;19917;-77
2023/08/22 15:59:22;;;;;;;;;;;;;;;;;;5005138;28;20507;-77
2023/08/22 16:02:09;;;;;;;;;;;;;;;;;;5025889;28;21841;-76
2023/08/22 16:04:55;;;;;;;;;;;;;;;;;;5028716;28;20381;-77
2023/08/22 16:07:43;;;;;;;;;;;;;;;;;;5017704;28;19929;-77
2023/08/22 16:10:30;;;;;;;;;;;;;;;;;;5010494;28;21499;-77
2023/08/22 16:13:16;;;;;;;;;;;;;;;;;;5021237;28;19932;-76
2023/08/22 16:16:03;;;;;;;;;;;;;;;;;;5013359;28;19917;-76
2023/08/22 16:18:49;;;;;;;;;;;;;;;;;;5025877;28;19928;-79
2023/08/22 16:21:36;;;;;;;;;;;;;;;;;;5026117;28;19927;-77
2023/08/22 16:24:22;;;;;;;;;;;;;;;;;;5020743;28;20467;-77
2023/08/22 16:27:09;;;;;;;;;;;;;;;;;;5022675;28;19932;-76
2023/08/22 16:29:55;;;;;;;;;;;;;;;;;;5024440;28;20305;-76
2023/08/22 16:32:42;;;;;;;;;;;;;;;;;;5004601;28;19933;-77
2023/08/22 16:35:28;;;;;;;;;;;;;;;;;;5029795;28;19921;-76
2023/08/22 16:38:14;;;;;;;;;;;;;;;;;;5027114;28;20730;-77
2023/08/22 16:41:01;;;;;;;;;;;;;;;;;;5028083;28;19924;-77
2023/08/22 16:43:47;;;;;;;;;;;;;;;;;;5016164;28;19913;-77
2023/08/22 16:46:34;;;;;;;;;;;;;;;;;;5023406;28;19921;-78
2023/08/22 16:49:20;;;;;;;;;;;;;;;;;;5020027;28;19929;-76
2023/08/22 16:52:07;;;;;;;;;;;;;;;;;;5018589;28;19949;-76
2023/08/22 16:54:53;;;;;;;;;;;;;;;;;;5024908;28;19921;-77
2023/08/22 16:57:40;;;;;;;;;;;;;;;;;;5026032;28;19917;-76
2023/08/22 17:00:26;;;;;;;;;;;;;;;;;;5023410;28;19917;-76
2023/08/22 17:03:13;;;;;;;;;;;;;;;;;;5025576;28;19921;-76
2023/08/22 17:05:59;;;;;;;;;;;;;;;;;;5020574;28;19924;-76
2023/08/22 17:08:46;;;;;;;;;;;;;;;;;;5025372;28;20392;-78
2023/08/22 17:11:32;;;;;;;;;;;;;;;;;;5022971;28;19921;-76
2023/08/22 17:14:19;;;;;;;;;;;;;;;;;;5017465;28;20426;-77
2023/08/22 17:17:05;;;;;;;;;;;;;;;;;;5023420;28;19953;-75
2023/08/22 17:19:52;;;;;;;;;;;;;;;;;;5022739;28;19924;-76
2023/08/22 17:22:38;;;;;;;;;;;;;;;;;;5021367;28;19932;-76
2023/08/22 17:25:25;;;;;;;;;;;;;;;;;;5019902;28;19924;-77
2023/08/22 17:28:11;;;;;;;;;;;;;;;;;;5010880;28;19921;-77
2023/08/22 17:30:58;;;;;;;;;;;;;;;;;;5022165;28;19917;-77
2023/08/22 17:33:44;;;;;;;;;;;;;;;;;;5024701;28;19929;-77
2023/08/22 17:36:31;;;;;;;;;;;;;;;;;;5023800;28;19972;-75
2023/08/22 17:39:18;;;;;;;;;;;;;;;;;;5023555;28;19921;-77
2023/08/22 17:42:04;;;;;;;;;;;;;;;;;;5022854;28;19921;-76
2023/08/22 17:44:51;;;;;;;;;;;;;;;;;;5005408;28;19928;-75
2023/08/22 17:47:37;;;;;;;;;;;;;;;;;;5019082;28;19921;-76
2023/08/22 17:50:24;;;;;;;;;;;;;;;;;;5003919;28;19925;-78
2023/08/22 17:53:10;;;;;;;;;;;;;;;;;;5016720;28;19929;-78
2023/08/22 17:55:57;;;;;;;;;;;;;;;;;;5013612;28;20400;-79
2023/08/22 17:58:45;;;;;;;;;;;;;;;;;;5021464;28;20000;-78
2023/08/22 18:01:31;;;;;;;;;;;;;;;;;;5019825;28;20448;-77
2023/08/22 18:04:18;;;;;;;;;;;;;;;;;;5022388;28;19924;-77
2023/08/22 18:07:04;;;;;;;;;;;;;;;;;;5009242;28;20631;-78
2023/08/22 18:09:51;;;;;;;;;;;;;;;;;;5018922;28;19928;-79
2023/08/22 18:12:37;;;;;;;;;;;;;;;;;;5011593;28;20293;-78
2023/08/22 18:15:24;;;;;;;;;;;;;;;;;;5012552;28;19924;-77
2023/08/22 18:18:10;;;;;;;;;;;;;;;;;;5013078;28;19936;-77
2023/08/22 18:20:56;;;;;;;;;;;;;;;;;;5008978;28;19997;-77
2023/08/22 18:23:43;;;;;;;;;;;;;;;;;;5018595;28;19955;-78
2023/08/22 18:26:31;;;;;;;;;;;;;;;;;;5013343;28;19926;-82
2023/08/22 18:29:17;;;;;;;;;;;;;;;;;;5012784;28;19921;-79
2023/08/22 18:32:04;;;;;;;;;;;;;;;;;;5016879;28;19929;-80
2023/08/22 18:34:50;;;;;;;;;;;;;;;;;;5011780;28;19928;-78
2023/08/22 18:37:38;;;;;;;;;;;;;;;;;;5017389;28;20305;-80
2023/08/22 18:40:25;;;;;;;;;;;;;;;;;;5020253;28;19921;-75
2023/08/22 18:43:11;;;;;;;;;;;;;;;;;;5014787;28;19944;-76
2023/08/22 18:45:58;;;;;;;;;;;;;;;;;;5013590;28;19925;-75
2023/08/22 18:48:44;;;;;;;;;;;;;;;;;;5018881;28;20393;-77
2023/08/22 18:51:31;;;;;;;;;;;;;;;;;;5014154;28;19922;-76
2023/08/22 18:54:17;;;;;;;;;;;;;;;;;;5016093;28;20419;-80
2023/08/22 18:57:03;;;;;;;;;;;;;;;;;;5026355;28;19924;-77